Time;durP1;ratioP1;P1;durP2;ratioP2;P2;SDS_P1;SDS_P2;PMS_P1;PMS_P2;Temp;Humidity;BMP_temperature;BMP_pressure;BME280_temperature;BME280_humidity;BME280_pressure;Samples;Min_cycle;Max_cycle;Signal;HPM_P1;HPM_P2
2023/12/13 00:00:05;;;;;;;2.80;0.70;;;;;;;;;;4932045;29;20066;-57
2023/12/13 00:02:39;;;;;;;1.63;0.50;;;;;;;;;;4925477;29;20047;-56
2023/12/13 00:05:05;;;;;;;1.38;0.60;;;;;;;;;;4947425;29;20051;-56
2023/12/13 00:07:31;;;;;;;2.83;0.50;;;;;;;;;;4925812;29;20028;-54
2023/12/13 00:09:58;;;;;;;5.28;0.63;;;;;;;;;;4929973;29;20042;-54
2023/12/13 00:12:24;;;;;;;3.47;0.63;;;;;;;;;;4928113;29;20052;-56
2023/12/13 00:14:51;;;;;;;2.25;0.70;;;;;;;;;;4928015;29;20051;-54
2023/12/13 00:17:18;;;;;;;1.17;0.50;;;;;;;;;;4928067;29;20403;-54
2023/12/13 00:19:44;;;;;;;4.30;0.60;;;;;;;;;;4932144;29;20054;-57
2023/12/13 00:22:10;;;;;;;4.30;0.60;;;;;;;;;;4931981;29;20058;-58
2023/12/13 00:24:36;;;;;;;4.22;0.68;;;;;;;;;;4929339;29;20043;-57
2023/12/13 00:27:03;;;;;;;4.18;0.60;;;;;;;;;;4944541;28;20051;-57
2023/12/13 00:29:29;;;;;;;2.50;0.75;;;;;;;;;;4929814;29;20051;-59
2023/12/13 00:31:55;;;;;;;2.83;0.60;;;;;;;;;;4930305;29;20061;-57
2023/12/13 00:34:21;;;;;;;2.03;0.57;;;;;;;;;;4928933;29;20036;-56
2023/12/13 00:36:48;;;;;;;4.00;0.60;;;;;;;;;;4931787;29;20035;-57
2023/12/13 00:39:16;;;;;;;2.45;0.57;;;;;;;;;;4948493;29;20036;-55
2023/12/13 00:41:42;;;;;;;3.00;0.73;;;;;;;;;;4941502;29;20356;-58
2023/12/13 00:44:08;;;;;;;3.40;0.90;;;;;;;;;;4931996;29;20043;-54
2023/12/13 00:46:34;;;;;;;3.53;0.52;;;;;;;;;;4932166;29;20066;-55
2023/12/13 00:49:00;;;;;;;2.88;0.50;;;;;;;;;;4948020;29;20372;-54
2023/12/13 00:51:26;;;;;;;3.60;0.65;;;;;;;;;;4925765;29;20050;-54
2023/12/13 00:53:52;;;;;;;2.22;0.85;;;;;;;;;;4930927;29;20129;-56
2023/12/13 00:56:19;;;;;;;2.70;0.50;;;;;;;;;;4931514;29;20496;-54
2023/12/13 00:58:48;;;;;;;3.22;1.02;;;;;;;;;;4932403;29;20517;-54
2023/12/13 01:01:16;;;;;;;4.65;0.68;;;;;;;;;;4931478;29;20035;-54
2023/12/13 01:03:42;;;;;;;2.60;0.80;;;;;;;;;;4932976;29;20028;-56
2023/12/13 01:06:09;;;;;;;3.67;0.52;;;;;;;;;;4932211;29;20047;-55
2023/12/13 01:08:38;;;;;;;2.33;0.57;;;;;;;;;;4930872;29;20086;-55
2023/12/13 01:11:09;;;;;;;2.85;0.93;;;;;;;;;;4929366;29;20043;-55
2023/12/13 01:13:36;;;;;;;5.68;0.70;;;;;;;;;;4932984;29;20066;-61
2023/12/13 01:16:03;;;;;;;3.10;0.45;;;;;;;;;;4932847;29;20054;-55
2023/12/13 01:18:29;;;;;;;5.47;0.77;;;;;;;;;;4931836;29;20400;-56
2023/12/13 01:20:56;;;;;;;4.28;0.82;;;;;;;;;;4945593;29;20125;-56
2023/12/13 01:23:22;;;;;;;1.83;0.85;;;;;;;;;;4930159;29;20047;-56
2023/12/13 01:25:48;;;;;;;2.90;0.60;;;;;;;;;;4945978;28;20052;-57
2023/12/13 01:28:14;;;;;;;2.63;0.77;;;;;;;;;;4931863;29;20067;-57
2023/12/13 01:30:40;;;;;;;9.13;2.30;;;;;;;;;;4930948;29;20035;-56
2023/12/13 01:33:06;;;;;;;10.93;2.28;;;;;;;;;;4945433;28;20047;-57
2023/12/13 01:35:33;;;;;;;7.78;1.20;;;;;;;;;;4947412;29;20048;-57
2023/12/13 01:37:59;;;;;;;6.50;1.27;;;;;;;;;;4946375;28;20543;-56
2023/12/13 01:40:25;;;;;;;2.08;0.68;;;;;;;;;;4930523;29;20047;-56
2023/12/13 01:42:51;;;;;;;5.03;0.70;;;;;;;;;;4931519;29;20508;-56
2023/12/13 01:45:17;;;;;;;18.50;3.90;;;;;;;;;;4929536;29;20044;-56
2023/12/13 01:47:44;;;;;;;4.68;1.13;;;;;;;;;;4929879;29;20036;-55
2023/12/13 01:50:10;;;;;;;4.00;0.73;;;;;;;;;;4932870;29;20422;-54
2023/12/13 01:52:38;;;;;;;3.60;0.80;;;;;;;;;;4914257;29;20052;-54
2023/12/13 01:55:06;;;;;;;3.60;1.00;;;;;;;;;;4927324;29;20074;-56
2023/12/13 01:57:32;;;;;;;7.15;1.20;;;;;;;;;;4930475;29;20404;-59
2023/12/13 01:59:59;;;;;;;9.45;0.52;;;;;;;;;;4930774;29;20508;-59
2023/12/13 02:02:25;;;;;;;2.28;0.90;;;;;;;;;;4926827;29;20102;-57
2023/12/13 02:04:53;;;;;;;3.53;0.90;;;;;;;;;;4928814;29;20055;-57
2023/12/13 02:07:19;;;;;;;4.68;0.60;;;;;;;;;;4928862;29;20044;-58
2023/12/13 02:09:45;;;;;;;0.93;0.65;;;;;;;;;;4930994;29;20038;-58
2023/12/13 02:12:11;;;;;;;7.05;1.10;;;;;;;;;;4931170;29;20055;-54
2023/12/13 02:14:37;;;;;;;3.03;0.70;;;;;;;;;;4933823;29;20671;-57
2023/12/13 02:17:04;;;;;;;4.30;0.77;;;;;;;;;;4928986;29;20048;-56
2023/12/13 02:19:30;;;;;;;1.08;0.40;;;;;;;;;;4933397;29;20046;-56
2023/12/13 02:21:56;;;;;;;5.50;0.70;;;;;;;;;;4931248;29;20054;-57
2023/12/13 02:24:24;;;;;;;4.50;0.90;;;;;;;;;;4914356;29;20036;-57
2023/12/13 02:26:51;;;;;;;4.90;0.80;;;;;;;;;;4927047;29;20070;-55
2023/12/13 02:29:17;;;;;;;2.60;0.60;;;;;;;;;;4928954;29;20062;-57
2023/12/13 02:31:44;;;;;;;3.72;0.50;;;;;;;;;;4931761;29;20327;-55
2023/12/13 02:34:10;;;;;;;3.20;1.35;;;;;;;;;;4932625;29;20035;-53
2023/12/13 02:36:36;;;;;;;4.95;1.10;;;;;;;;;;4932743;29;20048;-56
2023/12/13 02:39:04;;;;;;;2.33;1.20;;;;;;;;;;4948395;29;20051;-55
2023/12/13 02:41:32;;;;;;;4.88;1.33;;;;;;;;;;4932553;29;20113;-54
2023/12/13 02:43:59;;;;;;;3.92;0.85;;;;;;;;;;4934155;29;20043;-54
2023/12/13 02:46:26;;;;;;;5.45;1.00;;;;;;;;;;4929981;29;20070;-56
2023/12/13 02:48:52;;;;;;;2.70;0.70;;;;;;;;;;4931234;29;20051;-54
2023/12/13 02:51:18;;;;;;;2.15;0.57;;;;;;;;;;4933423;29;20412;-55
2023/12/13 02:53:44;;;;;;;6.72;0.77;;;;;;;;;;4930986;29;20043;-54
2023/12/13 02:56:11;;;;;;;0.88;0.50;;;;;;;;;;4916191;29;20028;-55
2023/12/13 02:58:37;;;;;;;3.10;0.50;;;;;;;;;;4931886;29;20080;-53
2023/12/13 03:01:03;;;;;;;3.08;0.80;;;;;;;;;;4931756;29;20035;-53
2023/12/13 03:03:29;;;;;;;6.40;0.70;;;;;;;;;;4930860;29;20067;-57
2023/12/13 03:05:55;;;;;;;5.95;0.90;;;;;;;;;;4933305;29;20039;-55
2023/12/13 03:08:21;;;;;;;2.90;1.00;;;;;;;;;;4931203;29;20039;-54
2023/12/13 03:10:48;;;;;;;2.83;0.70;;;;;;;;;;4930891;29;20032;-57
2023/12/13 03:13:14;;;;;;;4.65;0.60;;;;;;;;;;4947327;29;20468;-54
2023/12/13 03:15:40;;;;;;;1.30;0.60;;;;;;;;;;4929296;29;20058;-54
2023/12/13 03:18:07;;;;;;;2.25;0.50;;;;;;;;;;4912922;29;20048;-53
2023/12/13 03:20:33;;;;;;;2.30;0.57;;;;;;;;;;4929899;29;20442;-54
2023/12/13 03:22:59;;;;;;;3.20;0.52;;;;;;;;;;4945627;28;20483;-53
2023/12/13 03:25:25;;;;;;;1.55;0.60;;;;;;;;;;4914840;29;20043;-61
2023/12/13 03:27:51;;;;;;;2.50;0.50;;;;;;;;;;4931809;29;20050;-55
2023/12/13 03:30:17;;;;;;;0.43;0.40;;;;;;;;;;4930527;29;20047;-53
2023/12/13 03:32:43;;;;;;;2.70;0.60;;;;;;;;;;4931443;29;20339;-56
2023/12/13 03:35:10;;;;;;;3.90;0.63;;;;;;;;;;4930844;29;20463;-53
2023/12/13 03:37:36;;;;;;;4.28;0.63;;;;;;;;;;4930308;29;20043;-56
2023/12/13 03:40:03;;;;;;;2.50;0.60;;;;;;;;;;4932738;29;20043;-58
2023/12/13 03:42:29;;;;;;;0.60;0.50;;;;;;;;;;4930758;29;20047;-54
2023/12/13 03:44:56;;;;;;;1.17;0.95;;;;;;;;;;4927868;29;20043;-53
2023/12/13 03:47:22;;;;;;;4.22;0.73;;;;;;;;;;4930728;29;20059;-53
2023/12/13 03:49:48;;;;;;;2.42;0.60;;;;;;;;;;4945303;28;20054;-57
2023/12/13 03:52:14;;;;;;;1.98;0.60;;;;;;;;;;4931646;29;20372;-55
2023/12/13 03:54:40;;;;;;;2.40;0.50;;;;;;;;;;4946002;29;20043;-56
2023/12/13 03:57:06;;;;;;;3.33;0.85;;;;;;;;;;4931782;29;20117;-55
2023/12/13 03:59:33;;;;;;;1.60;1.02;;;;;;;;;;4931104;29;20070;-56
2023/12/13 04:01:59;;;;;;;0.93;0.80;;;;;;;;;;4943847;29;20062;-56
2023/12/13 04:04:25;;;;;;;2.25;0.60;;;;;;;;;;4930856;29;20082;-58
2023/12/13 04:06:51;;;;;;;2.50;0.98;;;;;;;;;;4928531;29;20074;-58
2023/12/13 04:09:17;;;;;;;2.90;0.70;;;;;;;;;;4927043;29;20031;-57
2023/12/13 04:11:43;;;;;;;1.35;0.80;;;;;;;;;;4960989;23;20046;-54
2023/12/13 04:14:09;;;;;;;1.95;0.73;;;;;;;;;;4951210;28;20039;-56
2023/12/13 04:16:36;;;;;;;6.20;1.55;;;;;;;;;;4947533;28;20042;-56
2023/12/13 04:19:02;;;;;;;4.63;1.17;;;;;;;;;;4934629;29;20035;-58
2023/12/13 04:21:28;;;;;;;5.35;1.95;;;;;;;;;;4939830;29;20042;-57
2023/12/13 04:23:54;;;;;;;3.35;1.10;;;;;;;;;;4930290;29;20051;-56
2023/12/13 04:26:20;;;;;;;2.85;0.90;;;;;;;;;;4930574;29;20043;-57
2023/12/13 04:28:46;;;;;;;1.15;0.70;;;;;;;;;;4927071;29;20036;-56
2023/12/13 04:31:12;;;;;;;3.13;0.90;;;;;;;;;;4931043;29;20039;-57
2023/12/13 04:33:38;;;;;;;0.55;0.55;;;;;;;;;;4932839;29;20062;-56
2023/12/13 04:36:06;;;;;;;1.38;0.52;;;;;;;;;;4946475;28;20040;-59
2023/12/13 04:38:33;;;;;;;5.15;1.55;;;;;;;;;;4930129;29;20536;-57
2023/12/13 04:41:00;;;;;;;2.25;0.70;;;;;;;;;;4929653;29;20062;-57
2023/12/13 04:43:26;;;;;;;1.85;1.00;;;;;;;;;;4930640;29;20055;-57
2023/12/13 04:45:52;;;;;;;4.80;1.80;;;;;;;;;;4928122;29;20043;-57
2023/12/13 04:48:18;;;;;;;2.78;1.70;;;;;;;;;;4931512;29;21551;-58
2023/12/13 04:50:44;;;;;;;1.33;1.00;;;;;;;;;;4930966;29;20035;-58
2023/12/13 04:53:10;;;;;;;1.73;0.82;;;;;;;;;;4930185;29;20050;-57
2023/12/13 04:55:36;;;;;;;1.42;0.70;;;;;;;;;;4941655;28;20043;-57
2023/12/13 04:58:03;;;;;;;7.03;3.22;;;;;;;;;;4932492;29;20035;-57
2023/12/13 05:00:29;;;;;;;5.68;3.22;;;;;;;;;;4931647;29;20043;-58
2023/12/13 05:02:55;;;;;;;3.83;1.80;;;;;;;;;;4930729;29;20047;-59
2023/12/13 05:05:21;;;;;;;2.63;1.10;;;;;;;;;;4931155;29;20056;-56
2023/12/13 05:07:48;;;;;;;2.00;0.90;;;;;;;;;;4930228;29;20028;-55
2023/12/13 05:10:14;;;;;;;3.57;0.80;;;;;;;;;;4884583;29;1118891;-56
2023/12/13 05:12:40;;;;;;;1.27;0.90;;;;;;;;;;4920037;29;20059;-54
2023/12/13 05:15:06;;;;;;;12.15;4.03;;;;;;;;;;4932774;29;20043;-56
2023/12/13 05:17:33;;;;;;;4.75;2.03;;;;;;;;;;4918328;29;20040;-57
2023/12/13 05:19:59;;;;;;;2.50;1.13;;;;;;;;;;4928767;29;20074;-57
2023/12/13 05:22:25;;;;;;;4.80;1.30;;;;;;;;;;4931899;29;20066;-57
2023/12/13 05:24:51;;;;;;;1.90;0.88;;;;;;;;;;4927344;29;20055;-56
2023/12/13 05:27:17;;;;;;;0.82;0.68;;;;;;;;;;4927872;29;20047;-56
2023/12/13 05:29:43;;;;;;;1.52;0.70;;;;;;;;;;4919591;29;20028;-57
2023/12/13 05:32:09;;;;;;;1.58;0.60;;;;;;;;;;4940854;28;20058;-56
2023/12/13 05:34:36;;;;;;;3.00;0.73;;;;;;;;;;4946125;29;20039;-57
2023/12/13 05:37:05;;;;;;;0.95;0.75;;;;;;;;;;4927518;29;20066;-57
2023/12/13 05:39:32;;;;;;;3.90;0.90;;;;;;;;;;4929248;29;20038;-55
2023/12/13 05:41:58;;;;;;;1.83;1.00;;;;;;;;;;4930127;29;20051;-57
2023/12/13 05:44:24;;;;;;;4.10;1.40;;;;;;;;;;4927656;29;20043;-57
2023/12/13 05:46:50;;;;;;;6.80;2.05;;;;;;;;;;4914017;29;20047;-58
2023/12/13 05:49:16;;;;;;;1.75;1.00;;;;;;;;;;4932115;29;20046;-58
2023/12/13 05:51:43;;;;;;;6.00;1.30;;;;;;;;;;4932193;29;20526;-56
2023/12/13 05:54:09;;;;;;;2.47;0.90;;;;;;;;;;4934811;29;20039;-54
2023/12/13 05:56:35;;;;;;;2.03;0.70;;;;;;;;;;4934597;29;20031;-57
2023/12/13 05:59:01;;;;;;;3.88;0.93;;;;;;;;;;4949681;29;20055;-56
2023/12/13 06:01:27;;;;;;;2.70;0.70;;;;;;;;;;4940796;29;20039;-56
2023/12/13 06:03:54;;;;;;;3.40;1.15;;;;;;;;;;4919736;29;20054;-60
2023/12/13 06:06:20;;;;;;;2.05;0.63;;;;;;;;;;4936177;29;20043;-57
2023/12/13 06:08:46;;;;;;;7.45;1.50;;;;;;;;;;4934478;29;20023;-57
2023/12/13 06:11:12;;;;;;;2.65;1.10;;;;;;;;;;4934464;29;20040;-59
2023/12/13 06:13:38;;;;;;;1.60;0.90;;;;;;;;;;4934369;29;20127;-56
2023/12/13 06:16:06;;;;;;;1.10;0.80;;;;;;;;;;4949618;29;20056;-57
2023/12/13 06:18:32;;;;;;;2.28;1.10;;;;;;;;;;4932672;29;20051;-55
2023/12/13 06:20:58;;;;;;;1.67;1.00;;;;;;;;;;4932835;29;20044;-60
2023/12/13 06:23:24;;;;;;;3.80;1.10;;;;;;;;;;4929941;29;20051;-58
2023/12/13 06:25:50;;;;;;;2.60;0.90;;;;;;;;;;4928318;29;20074;-58
2023/12/13 06:28:16;;;;;;;1.83;0.80;;;;;;;;;;4923815;29;20044;-59
2023/12/13 06:30:42;;;;;;;0.85;0.70;;;;;;;;;;4935312;29;20054;-57
2023/12/13 06:33:09;;;;;;;1.80;1.27;;;;;;;;;;4950536;29;20036;-58
2023/12/13 06:35:36;;;;;;;1.95;1.13;;;;;;;;;;4949970;29;20043;-58
2023/12/13 06:38:02;;;;;;;4.60;1.70;;;;;;;;;;4935326;29;20032;-56
2023/12/13 06:40:28;;;;;;;2.67;1.33;;;;;;;;;;4933757;29;20052;-56
2023/12/13 06:42:54;;;;;;;1.30;1.00;;;;;;;;;;4935658;29;20507;-58
2023/12/13 06:45:20;;;;;;;1.52;1.10;;;;;;;;;;4933456;29;20055;-60
2023/12/13 06:47:48;;;;;;;2.65;1.48;;;;;;;;;;4934524;29;20044;-59
2023/12/13 06:50:14;;;;;;;5.30;1.60;;;;;;;;;;4935080;29;20043;-57
2023/12/13 06:52:40;;;;;;;4.82;1.58;;;;;;;;;;4935322;29;20044;-57
2023/12/13 06:55:07;;;;;;;5.38;1.58;;;;;;;;;;4918620;29;20039;-59
2023/12/13 06:57:33;;;;;;;8.25;1.45;;;;;;;;;;4949052;28;20043;-57
2023/12/13 06:59:59;;;;;;;2.28;1.00;;;;;;;;;;4930007;29;20043;-57
2023/12/13 07:02:25;;;;;;;4.88;1.70;;;;;;;;;;4934663;29;20403;-57
2023/12/13 07:04:51;;;;;;;7.60;2.20;;;;;;;;;;4950021;29;20039;-57
2023/12/13 07:07:18;;;;;;;11.65;2.20;;;;;;;;;;4935335;29;20059;-62
2023/12/13 07:09:44;;;;;;;4.78;2.72;;;;;;;;;;4946361;29;20035;-55
2023/12/13 07:12:10;;;;;;;2.72;1.70;;;;;;;;;;4933951;29;20047;-55
2023/12/13 07:14:36;;;;;;;4.57;1.30;;;;;;;;;;4934696;29;20044;-55
2023/12/13 07:17:03;;;;;;;3.15;1.33;;;;;;;;;;4947388;29;20059;-57
2023/12/13 07:19:29;;;;;;;4.45;1.70;;;;;;;;;;4932100;29;20063;-57
2023/12/13 07:21:56;;;;;;;4.07;1.52;;;;;;;;;;4949550;29;20432;-55
2023/12/13 07:24:22;;;;;;;4.43;1.77;;;;;;;;;;4933630;29;20039;-57
2023/12/13 07:26:48;;;;;;;3.25;1.30;;;;;;;;;;4930984;29;20040;-57
2023/12/13 07:29:14;;;;;;;5.07;1.42;;;;;;;;;;4945396;29;20047;-58
2023/12/13 07:31:40;;;;;;;2.97;1.60;;;;;;;;;;4949415;29;20034;-55
2023/12/13 07:34:10;;;;;;;4.28;1.52;;;;;;;;;;4947474;29;20043;-55
2023/12/13 07:36:36;;;;;;;5.45;1.95;;;;;;;;;;4933591;29;20031;-57
2023/12/13 07:39:03;;;;;;;5.15;1.83;;;;;;;;;;4930577;29;20063;-55
2023/12/13 07:41:29;;;;;;;7.13;2.92;;;;;;;;;;4932247;29;20047;-58
2023/12/13 07:43:55;;;;;;;14.05;5.45;;;;;;;;;;4931435;29;20043;-57
2023/12/13 07:46:22;;;;;;;13.05;5.28;;;;;;;;;;4929050;29;20070;-58
2023/12/13 07:48:51;;;;;;;10.30;3.13;;;;;;;;;;4930340;29;20395;-57
2023/12/13 07:51:17;;;;;;;6.13;2.33;;;;;;;;;;4947096;28;20519;-57
2023/12/13 07:53:43;;;;;;;6.38;2.42;;;;;;;;;;4928565;29;20059;-55
2023/12/13 07:56:10;;;;;;;6.50;2.47;;;;;;;;;;4934625;29;20066;-54
2023/12/13 07:58:36;;;;;;;6.03;3.30;;;;;;;;;;4932721;29;20059;-58
2023/12/13 08:01:02;;;;;;;11.13;3.65;;;;;;;;;;4931685;29;20043;-57
2023/12/13 08:03:29;;;;;;;7.85;2.55;;;;;;;;;;4929410;29;20044;-55
2023/12/13 08:05:56;;;;;;;3.15;1.70;;;;;;;;;;4931044;29;20038;-57
2023/12/13 08:08:22;;;;;;;4.13;1.98;;;;;;;;;;4932827;29;20408;-55
2023/12/13 08:10:48;;;;;;;6.32;1.98;;;;;;;;;;4930396;29;20216;-57
2023/12/13 08:13:14;;;;;;;4.57;1.70;;;;;;;;;;4931944;29;20043;-56
2023/12/13 08:15:41;;;;;;;4.47;2.00;;;;;;;;;;4934997;29;20039;-57
2023/12/13 08:18:07;;;;;;;6.72;2.47;;;;;;;;;;4931266;29;20047;-56
2023/12/13 08:20:33;;;;;;;5.32;2.03;;;;;;;;;;4931710;29;20047;-55
2023/12/13 08:23:03;;;;;;;5.50;1.90;;;;;;;;;;4933400;29;20058;-56
2023/12/13 08:25:30;;;;;;;4.05;1.98;;;;;;;;;;4948342;29;20067;-55
2023/12/13 08:27:56;;;;;;;6.40;1.90;;;;;;;;;;4933167;29;20035;-55
2023/12/13 08:30:22;;;;;;;6.28;2.85;;;;;;;;;;4933216;29;20040;-58
2023/12/13 08:32:48;;;;;;;12.70;5.25;;;;;;;;;;4933268;29;20048;-55
2023/12/13 08:35:14;;;;;;;6.75;2.90;;;;;;;;;;4932426;29;20040;-57
2023/12/13 08:37:41;;;;;;;6.40;2.75;;;;;;;;;;4931664;29;20054;-55
2023/12/13 08:40:08;;;;;;;7.72;4.05;;;;;;;;;;4933674;29;20047;-56
2023/12/13 08:42:35;;;;;;;4.45;2.53;;;;;;;;;;4932509;29;20061;-57
2023/12/13 08:45:01;;;;;;;12.00;4.63;;;;;;;;;;4933283;29;20046;-57
2023/12/13 08:47:28;;;;;;;7.95;3.92;;;;;;;;;;4931680;29;20059;-57
2023/12/13 08:49:54;;;;;;;9.70;5.75;;;;;;;;;;4934188;29;20039;-57
2023/12/13 08:52:21;;;;;;;12.10;4.72;;;;;;;;;;4930081;29;20039;-59
2023/12/13 08:54:47;;;;;;;7.03;3.00;;;;;;;;;;4932522;29;20035;-57
2023/12/13 08:57:14;;;;;;;7.40;3.13;;;;;;;;;;4930246;29;20054;-57
2023/12/13 08:59:40;;;;;;;5.65;3.42;;;;;;;;;;4923903;29;20040;-55
2023/12/13 09:02:07;;;;;;;9.32;4.30;;;;;;;;;;4941042;29;20087;-58
2023/12/13 09:04:33;;;;;;;11.68;4.50;;;;;;;;;;4925729;29;20031;-55
2023/12/13 09:06:59;;;;;;;7.28;3.83;;;;;;;;;;4925431;29;20511;-57
2023/12/13 09:09:25;;;;;;;7.22;2.80;;;;;;;;;;4913321;29;20048;-56
2023/12/13 09:11:51;;;;;;;4.65;2.20;;;;;;;;;;4926965;29;20059;-57
2023/12/13 09:14:18;;;;;;;7.18;2.22;;;;;;;;;;4926103;29;20043;-56
2023/12/13 09:16:44;;;;;;;8.80;2.55;;;;;;;;;;4928759;29;20047;-56
2023/12/13 09:19:10;;;;;;;8.40;2.90;;;;;;;;;;4925950;29;20528;-55
2023/12/13 09:21:36;;;;;;;6.18;3.17;;;;;;;;;;4926180;29;20027;-57
2023/12/13 09:24:06;;;;;;;11.93;4.10;;;;;;;;;;4932893;29;20051;-57
2023/12/13 09:26:32;;;;;;;22.70;6.80;;;;;;;;;;4935823;29;20062;-54
2023/12/13 09:28:58;;;;;;;17.48;5.53;;;;;;;;;;4932529;29;20023;-56
2023/12/13 09:31:24;;;;;;;16.23;6.65;;;;;;;;;;4932662;29;20059;-59
2023/12/13 09:33:52;;;;;;;9.07;3.75;;;;;;;;;;4936248;29;20130;-56
2023/12/13 09:36:19;;;;;;;7.50;3.53;;;;;;;;;;4934673;29;20043;-56
2023/12/13 09:38:46;;;;;;;7.60;3.15;;;;;;;;;;4947887;29;20040;-56
2023/12/13 09:41:25;;;;;;;8.65;2.75;;;;;;;;;;4929504;29;20038;-55
2023/12/13 09:43:53;;;;;;;7.88;1.95;;;;;;;;;;4930369;29;20044;-55
2023/12/13 09:46:21;;;;;;;10.05;2.70;;;;;;;;;;4931662;29;20050;-57
2023/12/13 09:48:48;;;;;;;7.50;2.30;;;;;;;;;;4930339;29;20046;-58
2023/12/13 09:51:18;;;;;;;7.55;2.58;;;;;;;;;;4928245;29;20039;-58
2023/12/13 09:53:49;;;;;;;4.53;1.77;;;;;;;;;;4929949;29;20035;-56
2023/12/13 09:56:15;;;;;;;5.93;2.20;;;;;;;;;;4928934;29;20035;-59
2023/12/13 09:58:42;;;;;;;8.02;2.70;;;;;;;;;;4927326;29;20052;-56
2023/12/13 10:01:14;;;;;;;7.13;1.75;;;;;;;;;;4927911;29;20063;-54
2023/12/13 10:03:40;;;;;;;4.10;1.65;;;;;;;;;;4928508;29;20043;-57
2023/12/13 10:06:07;;;;;;;4.45;1.73;;;;;;;;;;4926717;29;20031;-56
2023/12/13 10:08:36;;;;;;;5.55;2.03;;;;;;;;;;4927265;29;20035;-54
2023/12/13 10:11:04;;;;;;;4.50;2.20;;;;;;;;;;4914318;29;20042;-55
2023/12/13 10:13:31;;;;;;;3.33;1.90;;;;;;;;;;4931126;29;20047;-54
2023/12/13 10:16:10;;;;;;;4.03;1.48;;;;;;;;;;4934829;29;20626;-57
2023/12/13 10:18:40;;;;;;;4.75;1.70;;;;;;;;;;4935735;29;20519;-56
2023/12/13 10:21:08;;;;;;;5.85;2.00;;;;;;;;;;4929199;29;20036;-55
2023/12/13 10:23:35;;;;;;;4.70;1.55;;;;;;;;;;4934498;29;20043;-57
2023/12/13 10:26:02;;;;;;;4.57;1.60;;;;;;;;;;4936150;29;20052;-56
2023/12/13 10:28:28;;;;;;;4.55;2.30;;;;;;;;;;4934691;29;20048;-57
2023/12/13 10:30:54;;;;;;;4.28;1.77;;;;;;;;;;4933972;29;20044;-55
2023/12/13 10:33:20;;;;;;;4.40;1.30;;;;;;;;;;4935488;29;20043;-57
2023/12/13 10:35:47;;;;;;;4.40;1.50;;;;;;;;;;4936066;29;20067;-56
2023/12/13 10:38:15;;;;;;;2.50;1.00;;;;;;;;;;4934974;29;20044;-57
2023/12/13 10:40:43;;;;;;;1.77;0.98;;;;;;;;;;4936802;29;20042;-55
2023/12/13 10:43:13;;;;;;;3.97;1.10;;;;;;;;;;4919919;29;20050;-57
2023/12/13 10:45:43;;;;;;;2.65;0.65;;;;;;;;;;4935124;29;20407;-57
2023/12/13 10:48:10;;;;;;;2.40;0.90;;;;;;;;;;4932662;29;20063;-57
2023/12/13 10:50:38;;;;;;;1.98;0.73;;;;;;;;;;4919188;29;20039;-57
2023/12/13 10:53:07;;;;;;;1.33;1.00;;;;;;;;;;4932808;29;20042;-55
2023/12/13 10:55:33;;;;;;;4.05;1.15;;;;;;;;;;4933927;29;20032;-55
2023/12/13 10:58:00;;;;;;;2.00;0.85;;;;;;;;;;4932193;29;20044;-57
2023/12/13 11:00:27;;;;;;;2.05;0.70;;;;;;;;;;4949771;29;20048;-55
2023/12/13 11:03:20;;;;;;;1.45;0.90;;;;;;;;;;4931578;29;20410;-55
2023/12/13 11:05:46;;;;;;;2.40;1.50;;;;;;;;;;4947121;29;20046;-56
2023/12/13 11:08:14;;;;;;;1.50;0.80;;;;;;;;;;4933956;29;20399;-59
2023/12/13 11:10:41;;;;;;;1.20;1.10;;;;;;;;;;4943707;29;20043;-58
2023/12/13 11:13:07;;;;;;;1.50;0.60;;;;;;;;;;4931549;29;20048;-57
2023/12/13 11:15:42;;;;;;;0.70;0.60;;;;;;;;;;4915963;29;20035;-58
2023/12/13 11:18:09;;;;;;;1.63;0.60;;;;;;;;;;4927287;29;20048;-59
2023/12/13 11:20:45;;;;;;;1.08;0.82;;;;;;;;;;4915090;29;20117;-57
2023/12/13 11:23:14;;;;;;;2.17;0.60;;;;;;;;;;4946899;29;20040;-59
2023/12/13 11:25:45;;;;;;;0.85;0.40;;;;;;;;;;4915351;29;20027;-59
2023/12/13 11:28:22;;;;;;;0.93;0.65;;;;;;;;;;4948776;29;20035;-57
2023/12/13 11:30:48;;;;;;;0.50;0.45;;;;;;;;;;4917472;29;20048;-56
2023/12/13 11:33:15;;;;;;;0.75;0.50;;;;;;;;;;4934622;29;20044;-60
2023/12/13 11:35:41;;;;;;;3.47;0.55;;;;;;;;;;4934003;29;20047;-57
2023/12/13 11:38:07;;;;;;;1.05;0.70;;;;;;;;;;4948782;29;20024;-58
2023/12/13 11:40:36;;;;;;;3.00;0.70;;;;;;;;;;4934798;29;20050;-59
2023/12/13 11:43:04;;;;;;;2.50;1.30;;;;;;;;;;4930834;29;20039;-57
2023/12/13 11:45:30;;;;;;;1.08;0.65;;;;;;;;;;4931821;29;20051;-57
2023/12/13 11:47:59;;;;;;;0.63;0.50;;;;;;;;;;4934576;29;20028;-54
2023/12/13 11:50:25;;;;;;;1.45;1.20;;;;;;;;;;4947832;29;20048;-55
2023/12/13 11:52:52;;;;;;;2.75;1.60;;;;;;;;;;4933756;29;20039;-56
2023/12/13 11:55:20;;;;;;;1.95;0.90;;;;;;;;;;4932827;29;20031;-55
2023/12/13 11:57:46;;;;;;;2.45;0.52;;;;;;;;;;4947542;29;20051;-56
2023/12/13 12:00:17;;;;;;;2.13;0.70;;;;;;;;;;4916193;29;20396;-56
2023/12/13 12:02:43;;;;;;;1.90;0.60;;;;;;;;;;4945490;29;20047;-55
2023/12/13 12:05:12;;;;;;;1.58;0.73;;;;;;;;;;4916043;29;20036;-59
2023/12/13 12:07:38;;;;;;;1.10;0.70;;;;;;;;;;4915487;29;20036;-59
2023/12/13 12:10:05;;;;;;;1.98;0.77;;;;;;;;;;4932695;29;20483;-57
2023/12/13 12:12:34;;;;;;;1.75;0.77;;;;;;;;;;4931400;29;20050;-58
2023/12/13 12:15:06;;;;;;;0.85;0.60;;;;;;;;;;4914563;29;20035;-56
2023/12/13 12:17:32;;;;;;;3.92;2.00;;;;;;;;;;4928573;29;20055;-58
2023/12/13 12:19:59;;;;;;;2.55;1.20;;;;;;;;;;4930435;29;20048;-58
2023/12/13 12:22:26;;;;;;;3.15;1.50;;;;;;;;;;4931895;29;20059;-59
2023/12/13 12:24:53;;;;;;;0.80;0.70;;;;;;;;;;4931855;29;20072;-58
2023/12/13 12:27:24;;;;;;;1.42;0.70;;;;;;;;;;4931994;29;20047;-58
2023/12/13 12:29:50;;;;;;;1.23;0.52;;;;;;;;;;4931905;29;20039;-57
2023/12/13 12:32:17;;;;;;;1.65;0.73;;;;;;;;;;4916712;29;20043;-58
2023/12/13 12:34:47;;;;;;;1.67;0.70;;;;;;;;;;4931815;29;20042;-56
2023/12/13 12:37:16;;;;;;;1.33;0.73;;;;;;;;;;4933711;29;20043;-56
2023/12/13 12:39:43;;;;;;;1.38;0.50;;;;;;;;;;4929991;29;20039;-56
2023/12/13 12:42:10;;;;;;;0.80;0.60;;;;;;;;;;4931638;29;20047;-56
2023/12/13 12:44:36;;;;;;;1.50;0.95;;;;;;;;;;4932582;29;20031;-59
2023/12/13 12:47:03;;;;;;;1.33;1.00;;;;;;;;;;4931445;29;20050;-59
2023/12/13 12:49:29;;;;;;;3.60;1.30;;;;;;;;;;4947793;29;20035;-56
2023/12/13 12:51:55;;;;;;;1.23;0.77;;;;;;;;;;4933313;29;20504;-56
2023/12/13 12:54:22;;;;;;;3.63;1.33;;;;;;;;;;4932367;29;20047;-56
2023/12/13 12:56:48;;;;;;;2.20;1.00;;;;;;;;;;4946642;28;20039;-55
2023/12/13 12:59:15;;;;;;;2.08;0.90;;;;;;;;;;4917146;29;20438;-56
2023/12/13 13:01:43;;;;;;;2.25;1.00;;;;;;;;;;4928302;29;20059;-56
2023/12/13 13:04:13;;;;;;;2.80;1.42;;;;;;;;;;4930610;29;20035;-56
2023/12/13 13:06:41;;;;;;;2.92;1.10;;;;;;;;;;4928336;29;20058;-58
2023/12/13 13:09:07;;;;;;;3.63;1.30;;;;;;;;;;4930787;29;20435;-56
2023/12/13 13:11:34;;;;;;;4.25;1.50;;;;;;;;;;4928898;29;20360;-56
2023/12/13 13:14:02;;;;;;;3.53;1.58;;;;;;;;;;4930274;29;20048;-57
2023/12/13 13:16:33;;;;;;;14.70;8.40;;;;;;;;;;4945114;29;20063;-57
2023/12/13 13:18:59;;;;;;;10.55;5.43;;;;;;;;;;4928269;29;20048;-57
2023/12/13 13:21:26;;;;;;;5.57;3.22;;;;;;;;;;4932348;29;20059;-56
2023/12/13 13:23:53;;;;;;;4.72;2.17;;;;;;;;;;4932763;29;20044;-57
2023/12/13 13:26:20;;;;;;;4.13;1.70;;;;;;;;;;4945446;29;20063;-59
2023/12/13 13:28:46;;;;;;;5.30;2.28;;;;;;;;;;4945170;29;20031;-58
2023/12/13 13:31:14;;;;;;;7.22;3.28;;;;;;;;;;4920421;29;20040;-58
2023/12/13 13:33:43;;;;;;;4.35;1.90;;;;;;;;;;4926018;29;20047;-59
2023/12/13 13:36:11;;;;;;;5.55;2.00;;;;;;;;;;4925227;29;20547;-60
2023/12/13 13:38:38;;;;;;;4.50;1.73;;;;;;;;;;4927040;29;20044;-57
2023/12/13 13:41:04;;;;;;;3.47;1.27;;;;;;;;;;4922747;29;20055;-56
2023/12/13 13:43:31;;;;;;;2.45;1.08;;;;;;;;;;4927739;29;20039;-59
2023/12/13 13:45:57;;;;;;;2.08;1.00;;;;;;;;;;4926947;29;20031;-55
2023/12/13 13:48:24;;;;;;;1.20;1.00;;;;;;;;;;4943370;29;20047;-56
2023/12/13 13:50:50;;;;;;;1.23;0.82;;;;;;;;;;4927276;29;20047;-56
2023/12/13 13:53:17;;;;;;;1.65;0.95;;;;;;;;;;4928569;29;20047;-58
2023/12/13 13:55:45;;;;;;;1.95;0.75;;;;;;;;;;4929392;29;20150;-58
2023/12/13 13:58:12;;;;;;;3.33;1.45;;;;;;;;;;4925739;29;20032;-58
2023/12/13 14:00:38;;;;;;;3.50;1.58;;;;;;;;;;4925088;29;20491;-55
2023/12/13 14:03:04;;;;;;;6.90;3.35;;;;;;;;;;4929795;29;20043;-56
2023/12/13 14:05:35;;;;;;;4.97;2.00;;;;;;;;;;4945091;29;20046;-55
2023/12/13 14:08:09;;;;;;;2.78;1.30;;;;;;;;;;4932010;29;20040;-57
2023/12/13 14:10:35;;;;;;;4.82;2.20;;;;;;;;;;4935320;29;20411;-56
2023/12/13 14:13:01;;;;;;;3.20;1.88;;;;;;;;;;4934596;29;20047;-58
2023/12/13 14:15:27;;;;;;;4.45;2.60;;;;;;;;;;4936264;29;20054;-57
2023/12/13 14:17:54;;;;;;;3.53;2.00;;;;;;;;;;4931956;29;20059;-56
2023/12/13 14:20:20;;;;;;;3.30;1.42;;;;;;;;;;4918531;29;20059;-58
2023/12/13 14:22:46;;;;;;;1.70;0.73;;;;;;;;;;4935493;29;20047;-55
2023/12/13 14:25:13;;;;;;;2.17;0.90;;;;;;;;;;4936343;29;20035;-56
2023/12/13 14:27:39;;;;;;;1.30;0.93;;;;;;;;;;4936007;29;20039;-58
2023/12/13 14:30:06;;;;;;;1.85;0.63;;;;;;;;;;4947616;29;20051;-57
2023/12/13 14:32:32;;;;;;;1.95;1.20;;;;;;;;;;4934361;29;20039;-58
2023/12/13 14:34:58;;;;;;;2.25;1.15;;;;;;;;;;4938242;29;20070;-57
2023/12/13 14:37:25;;;;;;;1.67;1.17;;;;;;;;;;4918614;29;20040;-58
2023/12/13 14:39:51;;;;;;;1.60;0.90;;;;;;;;;;4935788;29;20032;-58